sensor_id;sensor_type;location;lat;lon;timestamp;pressure;altitude;pressure_sealevel;temperature;humidity
65614;BME280;52283;49.292;10.572;2023-02-19T00:00:04;96812.81;;;7.15;100.00
65614;BME280;52283;49.292;10.572;2023-02-19T00:02:32;96838.25;;;7.23;100.00
65614;BME280;52283;49.292;10.572;2023-02-19T00:04:59;96823.00;;;7.18;100.00
65614;BME280;52283;49.292;10.572;2023-02-19T00:07:26;96831.22;;;7.13;100.00
65614;BME280;52283;49.292;10.572;2023-02-19T00:09:52;96817.63;;;7.15;100.00
65614;BME280;52283;49.292;10.572;2023-02-19T00:12:19;96815.97;;;7.08;100.00
65614;BME280;52283;49.292;10.572;2023-02-19T00:14:45;96821.63;;;7.14;100.00
65614;BME280;52283;49.292;10.572;2023-02-19T00:17:13;96827.97;;;7.14;100.00
65614;BME280;52283;49.292;10.572;2023-02-19T00:19:39;96833.34;;;7.18;100.00
65614;BME280;52283;49.292;10.572;2023-02-19T00:22:06;96837.00;;;7.24;100.00
65614;BME280;52283;49.292;10.572;2023-02-19T00:24:32;96832.88;;;7.19;100.00
65614;BME280;52283;49.292;10.572;2023-02-19T00:26:58;96830.38;;;7.21;100.00
65614;BME280;52283;49.292;10.572;2023-02-19T00:29:26;96825.97;;;7.15;100.00
65614;BME280;52283;49.292;10.572;2023-02-19T00:31:52;96839.03;;;7.23;100.00
65614;BME280;52283;49.292;10.572;2023-02-19T00:34:20;96832.09;;;7.19;100.00
65614;BME280;52283;49.292;10.572;2023-02-19T00:36:46;96832.41;;;7.21;100.00
65614;BME280;52283;49.292;10.572;2023-02-19T00:39:14;96839.97;;;7.20;100.00
65614;BME280;52283;49.292;10.572;2023-02-19T00:41:42;96835.34;;;7.17;100.00
65614;BME280;52283;49.292;10.572;2023-02-19T00:44:10;96838.59;;;7.16;100.00
65614;BME280;52283;49.292;10.572;2023-02-19T00:46:39;96825.97;;;7.15;100.00
65614;BME280;52283;49.292;10.572;2023-02-19T00:49:07;96820.81;;;7.22;100.00
65614;BME280;52283;49.292;10.572;2023-02-19T00:51:36;96827.03;;;7.17;100.00
65614;BME280;52283;49.292;10.572;2023-02-19T00:54:04;96825.78;;;7.18;100.00
65614;BME280;52283;49.292;10.572;2023-02-19T00:56:30;96816.72;;;7.09;100.00
65614;BME280;52283;49.292;10.572;2023-02-19T00:58:57;96805.91;;;7.11;100.00
65614;BME280;52283;49.292;10.572;2023-02-19T01:01:23;96805.91;;;7.11;100.00
65614;BME280;52283;49.292;10.572;2023-02-19T01:03:50;96804.53;;;7.06;100.00
65614;BME280;52283;49.292;10.572;2023-02-19T01:06:18;96795.56;;;7.11;100.00
65614;BME280;52283;49.292;10.572;2023-02-19T01:08:47;96783.53;;;7.05;100.00
65614;BME280;52283;49.292;10.572;2023-02-19T01:11:14;96781.38;;;7.09;100.00
65614;BME280;52283;49.292;10.572;2023-02-19T01:13:41;96765.41;;;7.19;100.00
65614;BME280;52283;49.292;10.572;2023-02-19T01:16:11;96758.19;;;7.12;100.00
65614;BME280;52283;49.292;10.572;2023-02-19T01:18:38;96764.38;;;7.07;100.00
65614;BME280;52283;49.292;10.572;2023-02-19T01:21:05;96771.44;;;7.17;100.00
65614;BME280;52283;49.292;10.572;2023-02-19T01:23:32;96774.41;;;7.14;100.00
65614;BME280;52283;49.292;10.572;2023-02-19T01:26:03;96770.84;;;7.13;100.00
65614;BME280;52283;49.292;10.572;2023-02-19T01:28:29;96767.31;;;7.13;100.00
65614;BME280;52283;49.292;10.572;2023-02-19T01:31:00;96757.72;;;7.14;100.00
65614;BME280;52283;49.292;10.572;2023-02-19T01:33:26;96752.16;;;7.14;100.00
65614;BME280;52283;49.292;10.572;2023-02-19T01:35:53;96751.41;;;7.13;100.00
65614;BME280;52283;49.292;10.572;2023-02-19T01:38:19;96745.28;;;7.24;100.00
65614;BME280;52283;49.292;10.572;2023-02-19T01:40:53;96748.13;;;7.15;100.00
65614;BME280;52283;49.292;10.572;2023-02-19T01:43:21;96734.72;;;7.13;100.00
65614;BME280;52283;49.292;10.572;2023-02-19T01:45:47;96743.75;;;7.23;100.00
65614;BME280;52283;49.292;10.572;2023-02-19T01:48:16;96740.38;;;7.19;100.00
65614;BME280;52283;49.292;10.572;2023-02-19T01:50:47;96730.63;;;7.23;100.00
65614;BME280;52283;49.292;10.572;2023-02-19T01:53:19;96722.84;;;7.27;100.00
65614;BME280;52283;49.292;10.572;2023-02-19T01:55:48;96727.53;;;7.21;100.00
65614;BME280;52283;49.292;10.572;2023-02-19T01:58:16;96710.28;;;7.17;100.00
65614;BME280;52283;49.292;10.572;2023-02-19T02:00:44;96719.41;;;7.18;100.00
65614;BME280;52283;49.292;10.572;2023-02-19T02:03:11;96716.81;;;7.14;100.00
65614;BME280;52283;49.292;10.572;2023-02-19T02:05:47;96720.25;;;7.09;100.00
65614;BME280;52283;49.292;10.572;2023-02-19T02:08:16;96714.13;;;7.20;100.00
65614;BME280;52283;49.292;10.572;2023-02-19T02:11:01;96719.00;;;7.10;100.00
65614;BME280;52283;49.292;10.572;2023-02-19T02:13:28;96725.47;;;7.07;100.00
65614;BME280;52283;49.292;10.572;2023-02-19T02:18:53;96723.91;;;7.15;100.00
65614;BME280;52283;49.292;10.572;2023-02-19T02:21:35;96727.63;;;7.12;100.00
65614;BME280;52283;49.292;10.572;2023-02-19T02:24:24;96727.06;;;7.23;100.00
65614;BME280;52283;49.292;10.572;2023-02-19T02:27:11;96727.44;;;7.16;100.00
65614;BME280;52283;49.292;10.572;2023-02-19T02:30:09;96730.44;;;7.27;100.00
65614;BME280;52283;49.292;10.572;2023-02-19T02:32:44;96717.16;;;7.31;100.00
65614;BME280;52283;49.292;10.572;2023-02-19T02:35:19;96721.97;;;7.21;100.00
65614;BME280;52283;49.292;10.572;2023-02-19T02:37:47;96721.41;;;7.17;100.00
65614;BME280;52283;49.292;10.572;2023-02-19T02:40:16;96718.53;;;7.26;100.00
65614;BME280;52283;49.292;10.572;2023-02-19T02:42:43;96714.72;;;7.24;100.00
65614;BME280;52283;49.292;10.572;2023-02-19T02:45:26;96715.56;;;7.15;100.00
65614;BME280;52283;49.292;10.572;2023-02-19T02:48:08;96703.19;;;7.16;100.00
65614;BME280;52283;49.292;10.572;2023-02-19T02:50:39;96696.47;;;7.08;100.00
65614;BME280;52283;49.292;10.572;2023-02-19T02:53:10;96693.03;;;7.13;100.00
65614;BME280;52283;49.292;10.572;2023-02-19T02:55:56;96696.88;;;7.16;100.00
65614;BME280;52283;49.292;10.572;2023-02-19T02:58:26;96707.41;;;7.12;100.00
65614;BME280;52283;49.292;10.572;2023-02-19T03:00:56;96698.94;;;7.06;100.00
65614;BME280;52283;49.292;10.572;2023-02-19T03:03:44;96696.75;;;7.10;100.00
65614;BME280;52283;49.292;10.572;2023-02-19T03:06:14;96684.28;;;7.06;100.00
65614;BME280;52283;49.292;10.572;2023-02-19T03:08:46;96695.84;;;7.04;100.00
65614;BME280;52283;49.292;10.572;2023-02-19T03:11:14;96692.13;;;7.07;100.00
65614;BME280;52283;49.292;10.572;2023-02-19T03:14:01;96694.03;;;7.01;100.00
65614;BME280;52283;49.292;10.572;2023-02-19T03:16:59;96695.28;;;7.00;100.00
65614;BME280;52283;49.292;10.572;2023-02-19T03:19:48;96676.59;;;7.00;100.00
65614;BME280;52283;49.292;10.572;2023-02-19T03:22:18;96677.31;;;7.10;100.00
65614;BME280;52283;49.292;10.572;2023-02-19T03:24:50;96670.66;;;6.93;100.00
65614;BME280;52283;49.292;10.572;2023-02-19T03:27:37;96668.25;;;7.00;100.00
65614;BME280;52283;49.292;10.572;2023-02-19T03:30:10;96665.84;;;6.93;100.00
65614;BME280;52283;49.292;10.572;2023-02-19T03:32:43;96661.25;;;6.90;100.00
65614;BME280;52283;49.292;10.572;2023-02-19T03:35:13;96668.06;;;6.89;100.00
65614;BME280;52283;49.292;10.572;2023-02-19T03:37:44;96672.94;;;6.94;100.00
65614;BME280;52283;49.292;10.572;2023-02-19T03:40:12;96672.09;;;7.03;100.00
65614;BME280;52283;49.292;10.572;2023-02-19T03:42:42;96662.78;;;6.91;100.00
65614;BME280;52283;49.292;10.572;2023-02-19T03:45:21;96670.16;;;6.94;100.00
65614;BME280;52283;49.292;10.572;2023-02-19T03:47:53;96679.19;;;7.04;100.00
65614;BME280;52283;49.292;10.572;2023-02-19T03:50:24;96669.09;;;6.92;100.00
65614;BME280;52283;49.292;10.572;2023-02-19T03:52:59;96670.66;;;6.93;100.00
65614;BME280;52283;49.292;10.572;2023-02-19T03:55:31;96654.75;;;6.93;100.00
65614;BME280;52283;49.292;10.572;2023-02-19T03:58:06;96675.06;;;6.99;100.00
65614;BME280;52283;49.292;10.572;2023-02-19T04:00:38;96675.06;;;6.99;100.00
65614;BME280;52283;49.292;10.572;2023-02-19T04:03:10;96675.06;;;6.99;100.00
65614;BME280;52283;49.292;10.572;2023-02-19T04:05:43;96674.19;;;6.93;100.00
65614;BME280;52283;49.292;10.572;2023-02-19T04:08:14;96680.03;;;6.95;100.00
65614;BME280;52283;49.292;10.572;2023-02-19T04:10:43;96682.63;;;6.99;100.00
65614;BME280;52283;49.292;10.572;2023-02-19T04:13:15;96677.25;;;6.95;100.00
65614;BME280;52283;49.292;10.572;2023-02-19T04:15:44;96669.88;;;6.92;100.00
65614;BME280;52283;49.292;10.572;2023-02-19T04:18:15;96691.97;;;6.87;100.00
65614;BME280;52283;49.292;10.572;2023-02-19T04:20:44;96689.03;;;6.90;100.00
65614;BME280;52283;49.292;10.572;2023-02-19T04:23:12;96688.88;;;6.85;100.00
65614;BME280;52283;49.292;10.572;2023-02-19T04:25:41;96684.47;;;6.78;100.00
65614;BME280;52283;49.292;10.572;2023-02-19T04:28:08;96669.69;;;6.72;100.00
65614;BME280;52283;49.292;10.572;2023-02-19T04:30:35;96699.00;;;6.73;100.00
65614;BME280;52283;49.292;10.572;2023-02-19T04:33:01;96703.91;;;6.78;100.00
65614;BME280;52283;49.292;10.572;2023-02-19T04:35:29;96699.97;;;6.70;100.00
65614;BME280;52283;49.292;10.572;2023-02-19T04:37:55;96677.44;;;6.68;100.00
65614;BME280;52283;49.292;10.572;2023-02-19T04:40:22;96685.31;;;6.69;100.00
65614;BME280;52283;49.292;10.572;2023-02-19T04:42:48;96693.50;;;6.64;100.00
65614;BME280;52283;49.292;10.572;2023-02-19T04:45:15;96684.94;;;6.77;100.00
65614;BME280;52283;49.292;10.572;2023-02-19T04:47:41;96706.00;;;6.68;100.00
65614;BME280;52283;49.292;10.572;2023-02-19T04:50:08;96706.09;;;6.74;100.00
65614;BME280;52283;49.292;10.572;2023-02-19T04:52:36;96710.13;;;6.73;100.00
65614;BME280;52283;49.292;10.572;2023-02-19T04:55:04;96723.72;;;6.71;100.00
65614;BME280;52283;49.292;10.572;2023-02-19T04:57:30;96713.19;;;6.75;100.00
65614;BME280;52283;49.292;10.572;2023-02-19T04:59:57;96723.81;;;6.77;100.00
65614;BME280;52283;49.292;10.572;2023-02-19T05:02:23;96730.16;;;6.77;100.00
65614;BME280;52283;49.292;10.572;2023-02-19T05:04:50;96727.06;;;6.75;100.00
65614;BME280;52283;49.292;10.572;2023-02-19T05:07:16;96736.19;;;6.76;100.00
65614;BME280;52283;49.292;10.572;2023-02-19T05:09:44;96719.97;;;6.74;100.00
65614;BME280;52283;49.292;10.572;2023-02-19T05:12:10;96710.72;;;6.77;100.00
65614;BME280;52283;49.292;10.572;2023-02-19T05:14:37;96720.53;;;6.87;100.00
65614;BME280;52283;49.292;10.572;2023-02-19T05:17:03;96726.72;;;6.82;100.00
65614;BME280;52283;49.292;10.572;2023-02-19T05:19:30;96721.13;;;6.91;100.00
65614;BME280;52283;49.292;10.572;2023-02-19T05:21:56;96716.44;;;6.97;100.00
65614;BME280;52283;49.292;10.572;2023-02-19T05:24:23;96716.03;;;6.90;100.00
65614;BME280;52283;49.292;10.572;2023-02-19T05:26:52;96700.78;;;6.85;100.00
65614;BME280;52283;49.292;10.572;2023-02-19T05:29:18;96716.44;;;6.97;100.00
65614;BME280;52283;49.292;10.572;2023-02-19T05:31:45;96724.41;;;7.04;100.00
65614;BME280;52283;49.292;10.572;2023-02-19T05:34:13;96717.03;;;7.01;100.00
65614;BME280;52283;49.292;10.572;2023-02-19T05:36:39;96730.25;;;7.07;100.00
65614;BME280;52283;49.292;10.572;2023-02-19T05:39:06;96721.53;;;6.99;100.00
65614;BME280;52283;49.292;10.572;2023-02-19T05:41:33;96725.25;;;6.96;100.00
65614;BME280;52283;49.292;10.572;2023-02-19T05:44:01;96720.47;;;6.96;100.00
65614;BME280;52283;49.292;10.572;2023-02-19T05:46:28;96736.78;;;7.03;100.00
65614;BME280;52283;49.292;10.572;2023-02-19T05:48:55;96702.16;;;6.90;100.00
65614;BME280;52283;49.292;10.572;2023-02-19T05:51:24;96729.38;;;7.00;100.00
65614;BME280;52283;49.292;10.572;2023-02-19T05:53:51;96717.50;;;7.00;100.00
65614;BME280;52283;49.292;10.572;2023-02-19T05:56:29;96740.78;;;7.02;100.00
65614;BME280;52283;49.292;10.572;2023-02-19T05:58:56;96729.28;;;6.95;100.00
65614;BME280;52283;49.292;10.572;2023-02-19T06:01:25;96738.50;;;7.01;100.00
65614;BME280;52283;49.292;10.572;2023-02-19T06:03:52;96740.50;;;7.00;100.00
65614;BME280;52283;49.292;10.572;2023-02-19T06:06:19;96739.84;;;7.06;100.00
65614;BME280;52283;49.292;10.572;2023-02-19T06:08:47;96750.38;;;7.01;100.00
65614;BME280;52283;49.292;10.572;2023-02-19T06:11:13;96756.50;;;7.06;100.00
65614;BME280;52283;49.292;10.572;2023-02-19T06:13:40;96734.66;;;6.98;100.00
65614;BME280;52283;49.292;10.572;2023-02-19T06:16:07;96759.78;;;7.04;100.00
65614;BME280;52283;49.292;10.572;2023-02-19T06:18:35;96766.81;;;7.14;100.00
65614;BME280;52283;49.292;10.572;2023-02-19T06:21:06;96759.19;;;7.00;100.00
65614;BME280;52283;49.292;10.572;2023-02-19T06:23:33;96763.69;;;6.97;100.00
65614;BME280;52283;49.292;10.572;2023-02-19T06:26:05;96760.78;;;6.92;100.00
65614;BME280;52283;49.292;10.572;2023-02-19T06:28:32;96760.13;;;6.97;100.00
65614;BME280;52283;49.292;10.572;2023-02-19T06:30:58;96767.41;;;6.94;100.00
65614;BME280;52283;49.292;10.572;2023-02-19T06:33:25;96770.66;;;6.93;100.00
65614;BME280;52283;49.292;10.572;2023-02-19T06:35:53;96777.56;;;6.97;100.00
65614;BME280;52283;49.292;10.572;2023-02-19T06:38:20;96751.44;;;6.80;100.00
65614;BME280;52283;49.292;10.572;2023-02-19T06:40:46;96768.56;;;6.79;100.00
65614;BME280;52283;49.292;10.572;2023-02-19T06:43:13;96758.41;;;6.76;100.00
65614;BME280;52283;49.292;10.572;2023-02-19T06:45:39;96783.22;;;6.79;100.00
65614;BME280;52283;49.292;10.572;2023-02-19T06:48:06;96769.81;;;6.78;100.00
65614;BME280;52283;49.292;10.572;2023-02-19T06:50:32;96786.28;;;6.81;100.00
65614;BME280;52283;49.292;10.572;2023-02-19T06:53:00;96799.41;;;6.81;100.00
65614;BME280;52283;49.292;10.572;2023-02-19T06:55:27;96771.94;;;6.83;100.00
65614;BME280;52283;49.292;10.572;2023-02-19T06:57:53;96793.84;;;6.81;100.00
65614;BME280;52283;49.292;10.572;2023-02-19T07:00:20;96802.31;;;6.86;100.00
65614;BME280;52283;49.292;10.572;2023-02-19T07:02:46;96810.81;;;6.83;100.00
65614;BME280;52283;49.292;10.572;2023-02-19T07:05:14;96822.69;;;6.83;100.00
65614;BME280;52283;49.292;10.572;2023-02-19T07:07:40;96817.16;;;6.83;100.00
65614;BME280;52283;49.292;10.572;2023-02-19T07:10:08;96828.56;;;6.85;100.00
65614;BME280;52283;49.292;10.572;2023-02-19T07:12:34;96825.16;;;6.90;100.00
65614;BME280;52283;49.292;10.572;2023-02-19T07:15:01;96811.88;;;6.85;100.00
65614;BME280;52283;49.292;10.572;2023-02-19T07:17:27;96830.41;;;6.88;100.00
65614;BME280;52283;49.292;10.572;2023-02-19T07:19:54;96827.63;;;6.88;100.00
65614;BME280;52283;49.292;10.572;2023-02-19T07:22:20;96832.88;;;6.86;100.00
65614;BME280;52283;49.292;10.572;2023-02-19T07:24:47;96828.09;;;6.87;100.00
65614;BME280;52283;49.292;10.572;2023-02-19T07:27:14;96812.66;;;6.86;100.00
65614;BME280;52283;49.292;10.572;2023-02-19T07:29:41;96822.53;;;6.87;100.00
65614;BME280;52283;49.292;10.572;2023-02-19T07:32:07;96832.28;;;6.82;100.00
65614;BME280;52283;49.292;10.572;2023-02-19T07:34:34;96848.63;;;6.89;100.00
65614;BME280;52283;49.292;10.572;2023-02-19T07:37:00;96852.00;;;6.93;100.00
65614;BME280;52283;49.292;10.572;2023-02-19T07:39:27;96837.66;;;6.86;100.00
65614;BME280;52283;49.292;10.572;2023-02-19T07:41:53;96848.00;;;6.85;100.00
65614;BME280;52283;49.292;10.572;2023-02-19T07:44:21;96841.25;;;6.77;100.00
65614;BME280;52283;49.292;10.572;2023-02-19T07:46:48;96852.06;;;6.75;100.00
65614;BME280;52283;49.292;10.572;2023-02-19T07:49:14;96860.09;;;6.73;100.00
65614;BME280;52283;49.292;10.572;2023-02-19T07:51:40;96844.66;;;6.72;100.00
65614;BME280;52283;49.292;10.572;2023-02-19T07:54:08;96849.00;;;6.64;100.00
65614;BME280;52283;49.292;10.572;2023-02-19T07:56:35;96843.13;;;6.71;100.00
65614;BME280;52283;49.292;10.572;2023-02-19T07:59:02;96848.22;;;6.72;100.00
65614;BME280;52283;49.292;10.572;2023-02-19T08:01:30;96861.75;;;6.80;100.00
65614;BME280;52283;49.292;10.572;2023-02-19T08:04:22;96845.91;;;6.71;100.00
65614;BME280;52283;49.292;10.572;2023-02-19T08:06:49;96843.25;;;6.77;100.00
65614;BME280;52283;49.292;10.572;2023-02-19T08:09:15;96830.97;;;6.68;100.00
65614;BME280;52283;49.292;10.572;2023-02-19T08:11:41;96857.09;;;6.86;100.00
65614;BME280;52283;49.292;10.572;2023-02-19T08:14:26;96850.34;;;6.78;100.00
65614;BME280;52283;49.292;10.572;2023-02-19T08:16:54;96865.00;;;6.87;100.00
65614;BME280;52283;49.292;10.572;2023-02-19T08:19:21;96861.59;;;6.83;100.00
65614;BME280;52283;49.292;10.572;2023-02-19T08:21:47;96863.75;;;6.88;100.00
65614;BME280;52283;49.292;10.572;2023-02-19T08:24:15;96865.88;;;6.93;100.00
65614;BME280;52283;49.292;10.572;2023-02-19T08:26:41;96875.94;;;6.91;100.00
65614;BME280;52283;49.292;10.572;2023-02-19T08:29:07;96861.53;;;7.01;100.00
65614;BME280;52283;49.292;10.572;2023-02-19T08:31:34;96863.66;;;7.07;100.00
65614;BME280;52283;49.292;10.572;2023-02-19T08:34:02;96873.69;;;7.04;100.00
65614;BME280;52283;49.292;10.572;2023-02-19T08:36:29;96880.00;;;7.14;100.00
65614;BME280;52283;49.292;10.572;2023-02-19T08:38:55;96882.25;;;7.24;100.00
65614;BME280;52283;49.292;10.572;2023-02-19T08:41:22;96886.84;;;7.37;100.00
65614;BME280;52283;49.292;10.572;2023-02-19T08:43:48;96901.81;;;7.39;100.00
65614;BME280;52283;49.292;10.572;2023-02-19T08:46:15;96912.56;;;7.46;100.00
65614;BME280;52283;49.292;10.572;2023-02-19T08:48:41;96905.88;;;7.29;100.00
65614;BME280;52283;49.292;10.572;2023-02-19T08:51:10;96906.31;;;7.37;100.00
65614;BME280;52283;49.292;10.572;2023-02-19T08:53:38;96912.22;;;7.29;100.00
65614;BME280;52283;49.292;10.572;2023-02-19T08:56:06;96912.34;;;7.26;100.00
65614;BME280;52283;49.292;10.572;2023-02-19T08:58:33;96919.47;;;7.27;100.00
65614;BME280;52283;49.292;10.572;2023-02-19T09:01:00;96927.78;;;7.27;100.00
65614;BME280;52283;49.292;10.572;2023-02-19T09:03:27;96924.25;;;7.26;100.00
65614;BME280;52283;49.292;10.572;2023-02-19T09:05:53;96940.72;;;7.39;100.00
65614;BME280;52283;49.292;10.572;2023-02-19T09:08:21;96915.41;;;7.37;100.00
65614;BME280;52283;49.292;10.572;2023-02-19T09:10:56;96946.88;;;7.43;100.00
65614;BME280;52283;49.292;10.572;2023-02-19T09:13:23;96950.91;;;7.42;100.00
65614;BME280;52283;49.292;10.572;2023-02-19T09:15:49;96954.75;;;7.45;100.00
65614;BME280;52283;49.292;10.572;2023-02-19T09:18:16;96945.53;;;7.39;100.00
65614;BME280;52283;49.292;10.572;2023-02-19T09:20:45;96960.47;;;7.50;100.00
65614;BME280;52283;49.292;10.572;2023-02-19T09:23:11;96972.31;;;7.60;100.00
65614;BME280;52283;49.292;10.572;2023-02-19T09:25:39;96970.34;;;7.51;100.00
65614;BME280;52283;49.292;10.572;2023-02-19T09:28:05;96967.09;;;7.53;100.00
65614;BME280;52283;49.292;10.572;2023-02-19T09:30:32;96980.38;;;7.82;100.00
65614;BME280;52283;49.292;10.572;2023-02-19T09:32:58;96977.94;;;7.75;100.00
65614;BME280;52283;49.292;10.572;2023-02-19T09:35:25;96979.19;;;7.74;100.00
65614;BME280;52283;49.292;10.572;2023-02-19T09:37:51;96979.97;;;7.74;100.00
65614;BME280;52283;49.292;10.572;2023-02-19T09:40:18;96966.06;;;7.74;100.00
65614;BME280;52283;49.292;10.572;2023-02-19T09:42:48;96980.94;;;7.95;100.00
65614;BME280;52283;49.292;10.572;2023-02-19T09:45:20;96961.78;;;7.88;100.00
65614;BME280;52283;49.292;10.572;2023-02-19T09:47:48;96983.69;;;8.19;100.00
65614;BME280;52283;49.292;10.572;2023-02-19T09:50:18;96982.66;;;7.92;100.00
65614;BME280;52283;49.292;10.572;2023-02-19T09:52:48;96966.56;;;7.87;100.00
65614;BME280;52283;49.292;10.572;2023-02-19T09:55:22;96991.34;;;8.09;100.00
65614;BME280;52283;49.292;10.572;2023-02-19T09:57:52;96985.44;;;8.16;100.00
65614;BME280;52283;49.292;10.572;2023-02-19T10:00:21;96986.00;;;8.20;100.00
65614;BME280;52283;49.292;10.572;2023-02-19T10:02:52;96989.19;;;8.28;100.00
65614;BME280;52283;49.292;10.572;2023-02-19T10:05:20;96980.53;;;8.50;100.00
65614;BME280;52283;49.292;10.572;2023-02-19T10:07:50;96994.44;;;8.35;100.00
65614;BME280;52283;49.292;10.572;2023-02-19T10:10:23;96989.28;;;8.43;100.00
65614;BME280;52283;49.292;10.572;2023-02-19T10:12:55;97001.47;;;8.21;100.00
65614;BME280;52283;49.292;10.572;2023-02-19T10:15:28;96980.34;;;8.15;100.00
65614;BME280;52283;49.292;10.572;2023-02-19T10:17:56;96996.38;;;8.20;100.00
65614;BME280;52283;49.292;10.572;2023-02-19T10:20:24;96985.91;;;8.15;100.00
65614;BME280;52283;49.292;10.572;2023-02-19T10:22:56;96989.38;;;8.24;100.00
65614;BME280;52283;49.292;10.572;2023-02-19T10:25:24;96996.72;;;8.61;100.00
65614;BME280;52283;49.292;10.572;2023-02-19T10:27:50;96992.16;;;8.48;100.00
65614;BME280;52283;49.292;10.572;2023-02-19T10:30:21;97010.66;;;8.61;100.00
65614;BME280;52283;49.292;10.572;2023-02-19T10:32:58;96997.53;;;8.52;100.00
65614;BME280;52283;49.292;10.572;2023-02-19T10:35:25;97009.63;;;8.34;100.00
65614;BME280;52283;49.292;10.572;2023-02-19T10:37:51;97012.63;;;8.45;100.00
65614;BME280;52283;49.292;10.572;2023-02-19T10:40:19;97030.78;;;8.32;100.00
65614;BME280;52283;49.292;10.572;2023-02-19T10:42:48;97030.44;;;8.15;100.00
65614;BME280;52283;49.292;10.572;2023-02-19T10:45:22;97054.84;;;8.20;100.00
65614;BME280;52283;49.292;10.572;2023-02-19T10:47:50;97057.84;;;8.07;100.00
65614;BME280;52283;49.292;10.572;2023-02-19T10:50:25;97058.19;;;8.00;100.00
65614;BME280;52283;49.292;10.572;2023-02-19T10:52:55;97061.56;;;8.04;100.00
65614;BME280;52283;49.292;10.572;2023-02-19T10:55:27;97049.19;;;8.05;100.00
65614;BME280;52283;49.292;10.572;2023-02-19T10:57:54;97053.19;;;8.13;100.00
65614;BME280;52283;49.292;10.572;2023-02-19T11:00:24;97039.78;;;8.03;100.00
65614;BME280;52283;49.292;10.572;2023-02-19T11:03:12;97040.84;;;8.05;100.00
65614;BME280;52283;49.292;10.572;2023-02-19T11:05:50;97053.19;;;8.13;100.00
65614;BME280;52283;49.292;10.572;2023-02-19T11:08:21;97053.81;;;8.08;100.00
65614;BME280;52283;49.292;10.572;2023-02-19T11:10:48;97058.13;;;8.09;100.00
65614;BME280;52283;49.292;10.572;2023-02-19T11:13:23;97065.38;;;8.16;100.00
65614;BME280;52283;49.292;10.572;2023-02-19T11:15:53;97051.88;;;8.00;100.00
65614;BME280;52283;49.292;10.572;2023-02-19T11:18:22;97054.56;;;7.85;100.00
65614;BME280;52283;49.292;10.572;2023-02-19T11:20:52;97053.00;;;7.84;100.00
65614;BME280;52283;49.292;10.572;2023-02-19T11:23:23;97048.69;;;7.83;100.00
65614;BME280;52283;49.292;10.572;2023-02-19T11:25:51;97061.47;;;7.89;100.00
65614;BME280;52283;49.292;10.572;2023-02-19T11:28:26;97064.91;;;7.84;100.00
65614;BME280;52283;49.292;10.572;2023-02-19T11:31:12;97070.19;;;7.82;100.00
65614;BME280;52283;49.292;10.572;2023-02-19T11:33:43;97058.22;;;7.91;100.00
65614;BME280;52283;49.292;10.572;2023-02-19T11:36:24;97034.59;;;7.86;100.00
65614;BME280;52283;49.292;10.572;2023-02-19T11:38:52;97041.84;;;7.93;100.00
65614;BME280;52283;49.292;10.572;2023-02-19T11:41:27;97046.59;;;8.02;100.00
65614;BME280;52283;49.292;10.572;2023-02-19T11:44:11;97042.19;;;8.10;100.00
65614;BME280;52283;49.292;10.572;2023-02-19T11:46:49;97051.59;;;8.21;100.00
65614;BME280;52283;49.292;10.572;2023-02-19T11:49:26;97070.41;;;8.36;100.00
65614;BME280;52283;49.292;10.572;2023-02-19T11:52:21;97071.31;;;8.33;100.00
65614;BME280;52283;49.292;10.572;2023-02-19T11:54:53;97066.00;;;8.44;100.00
65614;BME280;52283;49.292;10.572;2023-02-19T11:57:38;97082.81;;;8.73;100.00
65614;BME280;52283;49.292;10.572;2023-02-19T12:00:19;97075.72;;;8.48;100.00
65614;BME280;52283;49.292;10.572;2023-02-19T12:06:10;97053.72;;;8.26;100.00
65614;BME280;52283;49.292;10.572;2023-02-19T12:08:53;97067.69;;;8.89;100.00
65614;BME280;52283;49.292;10.572;2023-02-19T12:11:49;97081.59;;;8.50;100.00
65614;BME280;52283;49.292;10.572;2023-02-19T12:14:50;97078.38;;;8.67;100.00
65614;BME280;52283;49.292;10.572;2023-02-19T12:17:31;97083.31;;;9.25;100.00
65614;BME280;52283;49.292;10.572;2023-02-19T12:20:15;97079.53;;;8.99;100.00
65614;BME280;52283;49.292;10.572;2023-02-19T12:22:51;97084.09;;;9.40;100.00
65614;BME280;52283;49.292;10.572;2023-02-19T12:25:30;97086.41;;;8.89;100.00
65614;BME280;52283;49.292;10.572;2023-02-19T12:28:28;97099.00;;;8.84;100.00
65614;BME280;52283;49.292;10.572;2023-02-19T12:31:11;97084.91;;;9.02;100.00
65614;BME280;52283;49.292;10.572;2023-02-19T12:34:02;97079.34;;;9.02;100.00
65614;BME280;52283;49.292;10.572;2023-02-19T12:36:36;97088.88;;;9.10;100.00
65614;BME280;52283;49.292;10.572;2023-02-19T12:39:16;97079.00;;;8.85;100.00
65614;BME280;52283;49.292;10.572;2023-02-19T12:41:53;97075.56;;;8.91;100.00
65614;BME280;52283;49.292;10.572;2023-02-19T12:44:36;97064.84;;;8.74;100.00
65614;BME280;52283;49.292;10.572;2023-02-19T12:47:04;97068.78;;;8.68;100.00
65614;BME280;52283;49.292;10.572;2023-02-19T12:49:36;97074.94;;;8.72;100.00
65614;BME280;52283;49.292;10.572;2023-02-19T12:52:08;97074.81;;;9.05;100.00
65614;BME280;52283;49.292;10.572;2023-02-19T12:54:40;97077.50;;;8.99;100.00
65614;BME280;52283;49.292;10.572;2023-02-19T12:57:11;97050.84;;;8.83;100.00
65614;BME280;52283;49.292;10.572;2023-02-19T12:59:39;97052.72;;;9.01;100.00
65614;BME280;52283;49.292;10.572;2023-02-19T13:02:13;97063.56;;;8.61;100.00
65614;BME280;52283;49.292;10.572;2023-02-19T13:04:44;97070.94;;;8.88;100.00
65614;BME280;52283;49.292;10.572;2023-02-19T13:07:21;97062.28;;;8.85;100.00
65614;BME280;52283;49.292;10.572;2023-02-19T13:09:54;97059.94;;;8.69;100.00
65614;BME280;52283;49.292;10.572;2023-02-19T13:12:25;97072.22;;;8.63;100.00